CheckWX is a tool to help pilots better visualize weather data.  It is not intended as a substitute for an official pre-flight weather briefing.

19:31:44 UTC

SAME METAR
El Plumerillo Airport
Mendoza, Argentina
Current

32 mins ago

SAME 061900Z 09005KT CAVOK 19/02 Q1024
Observed
Apr-6 @ 19:00 UTC
Wind
  • 090° at 5 KTS
Visibility
10,000+ meters
Flight Rules
VFR
Cloud Levels
  • Clear skies
Temperature
19°C / 66°F
Dewpoint
C / 36°F
Humidity
32%
Altimeter
30.24" Hg
Pressure
1023.92 hPa
Previous

2 hours ago

SAME 061800Z 09005KT CAVOK 19/02 Q1024
Observed
Apr-6 @ 18:00 UTC
Wind
  • 090° at 5 KTS
Visibility
10,000+ meters
Flight Rules
VFR
Cloud Levels
  • Clear skies
Temperature
19°C / 66°F
Dewpoint
C / 36°F
Humidity
32%
Altimeter
30.24" Hg
Pressure
1023.92 hPa
Previous

3 hours ago

SAME 061700Z 09006KT CAVOK 18/03 Q1025
Observed
Apr-6 @ 17:00 UTC
Wind
  • 090° at 6 KTS
Visibility
10,000+ meters
Flight Rules
VFR
Cloud Levels
  • Clear skies
Temperature
18°C / 64°F
Dewpoint
C / 37°F
Humidity
37%
Altimeter
30.27" Hg
Pressure
1024.92 hPa